sensor_id;sensor_type;location;lat;lon;timestamp;P1;durP1;ratioP1;P2;durP2;ratioP2
4961;SDS011;2496;52.468;13.342;2023-02-28T00:01:18;7.17;;;3.23;;
4961;SDS011;2496;52.468;13.342;2023-02-28T00:03:45;4.30;;;3.10;;
4961;SDS011;2496;52.468;13.342;2023-02-28T00:06:12;3.67;;;2.73;;
4961;SDS011;2496;52.468;13.342;2023-02-28T00:08:40;5.70;;;3.40;;
4961;SDS011;2496;52.468;13.342;2023-02-28T00:11:08;6.30;;;3.60;;
4961;SDS011;2496;52.468;13.342;2023-02-28T00:13:38;8.83;;;3.30;;
4961;SDS011;2496;52.468;13.342;2023-02-28T00:16:07;15.97;;;3.80;;
4961;SDS011;2496;52.468;13.342;2023-02-28T00:18:35;7.60;;;3.07;;
4961;SDS011;2496;52.468;13.342;2023-02-28T00:21:03;3.40;;;3.10;;
4961;SDS011;2496;52.468;13.342;2023-02-28T00:23:31;5.57;;;3.30;;
4961;SDS011;2496;52.468;13.342;2023-02-28T00:25:59;5.80;;;3.53;;
4961;SDS011;2496;52.468;13.342;2023-02-28T00:28:27;6.40;;;3.50;;
4961;SDS011;2496;52.468;13.342;2023-02-28T00:30:54;9.13;;;3.70;;
4961;SDS011;2496;52.468;13.342;2023-02-28T00:33:22;10.30;;;3.90;;
4961;SDS011;2496;52.468;13.342;2023-02-28T00:35:49;7.47;;;3.90;;
4961;SDS011;2496;52.468;13.342;2023-02-28T00:38:16;5.40;;;3.70;;
4961;SDS011;2496;52.468;13.342;2023-02-28T00:40:43;7.30;;;3.90;;
4961;SDS011;2496;52.468;13.342;2023-02-28T00:43:12;9.30;;;3.67;;
4961;SDS011;2496;52.468;13.342;2023-02-28T00:45:39;5.97;;;3.73;;
4961;SDS011;2496;52.468;13.342;2023-02-28T00:48:06;10.70;;;3.43;;
4961;SDS011;2496;52.468;13.342;2023-02-28T00:50:33;9.87;;;4.07;;
4961;SDS011;2496;52.468;13.342;2023-02-28T00:53:00;7.80;;;3.47;;
4961;SDS011;2496;52.468;13.342;2023-02-28T00:55:27;9.53;;;3.80;;
4961;SDS011;2496;52.468;13.342;2023-02-28T00:57:54;4.73;;;2.90;;
4961;SDS011;2496;52.468;13.342;2023-02-28T01:00:22;6.07;;;4.20;;
4961;SDS011;2496;52.468;13.342;2023-02-28T01:02:49;7.63;;;4.13;;
4961;SDS011;2496;52.468;13.342;2023-02-28T01:05:16;5.90;;;4.13;;
4961;SDS011;2496;52.468;13.342;2023-02-28T01:07:43;6.73;;;3.97;;
4961;SDS011;2496;52.468;13.342;2023-02-28T01:10:10;9.13;;;4.73;;
4961;SDS011;2496;52.468;13.342;2023-02-28T01:12:37;8.20;;;4.40;;
4961;SDS011;2496;52.468;13.342;2023-02-28T01:15:05;5.73;;;3.73;;
4961;SDS011;2496;52.468;13.342;2023-02-28T01:17:34;6.97;;;4.30;;
4961;SDS011;2496;52.468;13.342;2023-02-28T01:20:02;5.93;;;3.33;;
4961;SDS011;2496;52.468;13.342;2023-02-28T01:22:30;12.30;;;4.30;;
4961;SDS011;2496;52.468;13.342;2023-02-28T01:24:57;6.90;;;3.70;;
4961;SDS011;2496;52.468;13.342;2023-02-28T01:27:24;7.33;;;3.90;;
4961;SDS011;2496;52.468;13.342;2023-02-28T01:29:51;9.20;;;5.30;;
4961;SDS011;2496;52.468;13.342;2023-02-28T01:32:18;6.90;;;4.20;;
4961;SDS011;2496;52.468;13.342;2023-02-28T01:34:46;8.63;;;4.13;;
4961;SDS011;2496;52.468;13.342;2023-02-28T01:37:13;8.37;;;5.40;;
4961;SDS011;2496;52.468;13.342;2023-02-28T01:39:40;10.10;;;3.73;;
4961;SDS011;2496;52.468;13.342;2023-02-28T01:42:08;4.93;;;3.40;;
4961;SDS011;2496;52.468;13.342;2023-02-28T01:44:55;7.43;;;4.17;;
4961;SDS011;2496;52.468;13.342;2023-02-28T01:47:25;14.50;;;3.97;;
4961;SDS011;2496;52.468;13.342;2023-02-28T01:49:57;7.60;;;4.03;;
4961;SDS011;2496;52.468;13.342;2023-02-28T01:52:27;9.07;;;4.20;;
4961;SDS011;2496;52.468;13.342;2023-02-28T01:54:56;8.10;;;4.67;;
4961;SDS011;2496;52.468;13.342;2023-02-28T01:57:27;6.50;;;4.47;;
4961;SDS011;2496;52.468;13.342;2023-02-28T02:00:03;9.10;;;4.83;;
4961;SDS011;2496;52.468;13.342;2023-02-28T02:02:34;10.10;;;4.43;;
4961;SDS011;2496;52.468;13.342;2023-02-28T02:05:05;9.43;;;5.30;;
4961;SDS011;2496;52.468;13.342;2023-02-28T02:07:36;9.50;;;4.70;;
4961;SDS011;2496;52.468;13.342;2023-02-28T02:10:06;11.67;;;5.23;;
4961;SDS011;2496;52.468;13.342;2023-02-28T02:12:47;7.80;;;5.00;;
4961;SDS011;2496;52.468;13.342;2023-02-28T02:15:24;6.43;;;4.37;;
4961;SDS011;2496;52.468;13.342;2023-02-28T02:17:57;7.30;;;3.73;;
4961;SDS011;2496;52.468;13.342;2023-02-28T02:20:46;6.47;;;4.13;;
4961;SDS011;2496;52.468;13.342;2023-02-28T02:26:40;6.03;;;3.70;;
4961;SDS011;2496;52.468;13.342;2023-02-28T02:29:24;9.00;;;5.03;;
4961;SDS011;2496;52.468;13.342;2023-02-28T02:32:17;10.03;;;4.97;;
4961;SDS011;2496;52.468;13.342;2023-02-28T02:35:02;6.63;;;4.10;;
4961;SDS011;2496;52.468;13.342;2023-02-28T02:37:38;8.67;;;5.10;;
4961;SDS011;2496;52.468;13.342;2023-02-28T02:40:11;7.13;;;4.47;;
4961;SDS011;2496;52.468;13.342;2023-02-28T02:42:46;6.03;;;4.70;;
4961;SDS011;2496;52.468;13.342;2023-02-28T02:45:23;6.87;;;4.70;;
4961;SDS011;2496;52.468;13.342;2023-02-28T02:47:52;9.00;;;4.97;;
4961;SDS011;2496;52.468;13.342;2023-02-28T02:50:24;9.77;;;5.23;;
4961;SDS011;2496;52.468;13.342;2023-02-28T02:52:55;10.20;;;5.00;;
4961;SDS011;2496;52.468;13.342;2023-02-28T02:55:24;9.93;;;4.77;;
4961;SDS011;2496;52.468;13.342;2023-02-28T02:57:53;11.13;;;4.90;;
4961;SDS011;2496;52.468;13.342;2023-02-28T03:00:26;15.03;;;5.30;;
4961;SDS011;2496;52.468;13.342;2023-02-28T03:02:56;11.07;;;5.70;;
4961;SDS011;2496;52.468;13.342;2023-02-28T03:05:26;10.60;;;4.73;;
4961;SDS011;2496;52.468;13.342;2023-02-28T03:07:57;11.70;;;4.97;;
4961;SDS011;2496;52.468;13.342;2023-02-28T03:10:28;9.40;;;5.57;;
4961;SDS011;2496;52.468;13.342;2023-02-28T03:13:01;12.80;;;4.70;;
4961;SDS011;2496;52.468;13.342;2023-02-28T03:15:40;11.27;;;4.60;;
4961;SDS011;2496;52.468;13.342;2023-02-28T03:18:21;10.50;;;5.23;;
4961;SDS011;2496;52.468;13.342;2023-02-28T03:20:56;8.67;;;5.00;;
4961;SDS011;2496;52.468;13.342;2023-02-28T03:23:35;7.93;;;4.83;;
4961;SDS011;2496;52.468;13.342;2023-02-28T03:26:11;12.20;;;5.07;;
4961;SDS011;2496;52.468;13.342;2023-02-28T03:28:44;9.40;;;4.90;;
4961;SDS011;2496;52.468;13.342;2023-02-28T03:31:21;7.13;;;4.80;;
4961;SDS011;2496;52.468;13.342;2023-02-28T03:33:54;7.97;;;3.93;;
4961;SDS011;2496;52.468;13.342;2023-02-28T03:36:26;8.17;;;5.00;;
4961;SDS011;2496;52.468;13.342;2023-02-28T03:38:56;7.50;;;4.43;;
4961;SDS011;2496;52.468;13.342;2023-02-28T03:41:30;12.93;;;5.00;;
4961;SDS011;2496;52.468;13.342;2023-02-28T03:44:03;8.80;;;4.90;;
4961;SDS011;2496;52.468;13.342;2023-02-28T03:46:37;11.30;;;6.20;;
4961;SDS011;2496;52.468;13.342;2023-02-28T03:49:12;10.33;;;5.37;;
4961;SDS011;2496;52.468;13.342;2023-02-28T03:51:45;12.73;;;4.60;;
4961;SDS011;2496;52.468;13.342;2023-02-28T03:54:15;9.40;;;4.10;;
4961;SDS011;2496;52.468;13.342;2023-02-28T03:56:47;11.87;;;5.37;;
4961;SDS011;2496;52.468;13.342;2023-02-28T03:59:20;8.10;;;4.53;;
4961;SDS011;2496;52.468;13.342;2023-02-28T04:01:51;8.57;;;4.80;;
4961;SDS011;2496;52.468;13.342;2023-02-28T04:04:20;10.73;;;5.07;;
4961;SDS011;2496;52.468;13.342;2023-02-28T04:06:50;13.33;;;6.37;;
4961;SDS011;2496;52.468;13.342;2023-02-28T04:09:19;9.20;;;5.00;;
4961;SDS011;2496;52.468;13.342;2023-02-28T04:11:48;8.40;;;4.43;;
4961;SDS011;2496;52.468;13.342;2023-02-28T04:14:18;7.33;;;4.47;;
4961;SDS011;2496;52.468;13.342;2023-02-28T04:16:45;12.70;;;5.63;;
4961;SDS011;2496;52.468;13.342;2023-02-28T04:19:13;13.00;;;6.07;;
4961;SDS011;2496;52.468;13.342;2023-02-28T04:21:41;9.33;;;5.30;;
4961;SDS011;2496;52.468;13.342;2023-02-28T04:24:11;10.00;;;5.03;;
4961;SDS011;2496;52.468;13.342;2023-02-28T04:26:40;8.10;;;4.80;;
4961;SDS011;2496;52.468;13.342;2023-02-28T04:29:09;9.80;;;5.27;;
4961;SDS011;2496;52.468;13.342;2023-02-28T04:31:38;12.93;;;4.97;;
4961;SDS011;2496;52.468;13.342;2023-02-28T04:34:05;9.47;;;5.10;;
4961;SDS011;2496;52.468;13.342;2023-02-28T04:36:33;9.23;;;4.80;;
4961;SDS011;2496;52.468;13.342;2023-02-28T04:39:00;8.47;;;4.83;;
4961;SDS011;2496;52.468;13.342;2023-02-28T04:41:30;8.80;;;4.53;;
4961;SDS011;2496;52.468;13.342;2023-02-28T04:43:58;12.37;;;5.50;;
4961;SDS011;2496;52.468;13.342;2023-02-28T04:46:25;10.00;;;5.43;;
4961;SDS011;2496;52.468;13.342;2023-02-28T04:48:52;7.37;;;4.87;;
4961;SDS011;2496;52.468;13.342;2023-02-28T04:51:20;9.73;;;5.53;;
4961;SDS011;2496;52.468;13.342;2023-02-28T04:53:48;12.73;;;5.80;;
4961;SDS011;2496;52.468;13.342;2023-02-28T04:56:15;8.50;;;5.40;;
4961;SDS011;2496;52.468;13.342;2023-02-28T04:58:45;14.07;;;5.70;;
4961;SDS011;2496;52.468;13.342;2023-02-28T05:01:20;8.77;;;5.20;;
4961;SDS011;2496;52.468;13.342;2023-02-28T05:03:49;8.70;;;5.27;;
4961;SDS011;2496;52.468;13.342;2023-02-28T05:06:17;13.57;;;5.40;;
4961;SDS011;2496;52.468;13.342;2023-02-28T05:08:45;7.10;;;5.20;;
4961;SDS011;2496;52.468;13.342;2023-02-28T05:11:14;11.90;;;5.93;;
4961;SDS011;2496;52.468;13.342;2023-02-28T05:13:44;9.70;;;6.33;;
4961;SDS011;2496;52.468;13.342;2023-02-28T05:16:12;6.80;;;4.87;;
4961;SDS011;2496;52.468;13.342;2023-02-28T05:18:39;8.57;;;5.93;;
4961;SDS011;2496;52.468;13.342;2023-02-28T05:21:12;8.93;;;4.93;;
4961;SDS011;2496;52.468;13.342;2023-02-28T05:23:53;7.50;;;4.97;;
4961;SDS011;2496;52.468;13.342;2023-02-28T05:26:21;11.60;;;5.00;;
4961;SDS011;2496;52.468;13.342;2023-02-28T05:28:50;11.30;;;5.77;;
4961;SDS011;2496;52.468;13.342;2023-02-28T05:31:17;11.47;;;5.80;;
4961;SDS011;2496;52.468;13.342;2023-02-28T05:33:45;10.67;;;5.57;;
4961;SDS011;2496;52.468;13.342;2023-02-28T05:36:12;8.00;;;5.50;;
4961;SDS011;2496;52.468;13.342;2023-02-28T05:38:39;11.93;;;5.80;;
4961;SDS011;2496;52.468;13.342;2023-02-28T05:41:07;12.53;;;6.20;;
4961;SDS011;2496;52.468;13.342;2023-02-28T05:43:35;6.90;;;4.63;;
4961;SDS011;2496;52.468;13.342;2023-02-28T05:46:06;8.83;;;5.07;;
4961;SDS011;2496;52.468;13.342;2023-02-28T05:48:35;8.00;;;5.50;;
4961;SDS011;2496;52.468;13.342;2023-02-28T05:51:03;11.60;;;5.73;;
4961;SDS011;2496;52.468;13.342;2023-02-28T05:53:32;9.03;;;5.13;;
4961;SDS011;2496;52.468;13.342;2023-02-28T05:56:00;13.70;;;6.87;;
4961;SDS011;2496;52.468;13.342;2023-02-28T05:58:29;8.23;;;5.07;;
4961;SDS011;2496;52.468;13.342;2023-02-28T06:00:57;11.10;;;6.53;;
4961;SDS011;2496;52.468;13.342;2023-02-28T06:03:26;9.00;;;4.50;;
4961;SDS011;2496;52.468;13.342;2023-02-28T06:05:53;10.60;;;5.30;;
4961;SDS011;2496;52.468;13.342;2023-02-28T06:08:21;11.90;;;5.93;;
4961;SDS011;2496;52.468;13.342;2023-02-28T06:10:48;9.90;;;5.70;;
4961;SDS011;2496;52.468;13.342;2023-02-28T06:13:17;11.70;;;5.97;;
4961;SDS011;2496;52.468;13.342;2023-02-28T06:15:45;12.80;;;5.30;;
4961;SDS011;2496;52.468;13.342;2023-02-28T06:18:12;11.03;;;5.33;;
4961;SDS011;2496;52.468;13.342;2023-02-28T06:20:40;10.23;;;6.00;;
4961;SDS011;2496;52.468;13.342;2023-02-28T06:23:07;15.30;;;5.67;;
4961;SDS011;2496;52.468;13.342;2023-02-28T06:25:34;10.93;;;5.60;;
4961;SDS011;2496;52.468;13.342;2023-02-28T06:28:01;10.67;;;5.67;;
4961;SDS011;2496;52.468;13.342;2023-02-28T06:30:28;8.93;;;5.90;;
4961;SDS011;2496;52.468;13.342;2023-02-28T06:32:56;11.60;;;5.30;;
4961;SDS011;2496;52.468;13.342;2023-02-28T06:35:23;17.50;;;6.30;;
4961;SDS011;2496;52.468;13.342;2023-02-28T06:37:51;14.63;;;7.37;;
4961;SDS011;2496;52.468;13.342;2023-02-28T06:40:18;15.97;;;6.90;;
4961;SDS011;2496;52.468;13.342;2023-02-28T06:42:45;15.73;;;7.23;;
4961;SDS011;2496;52.468;13.342;2023-02-28T06:45:12;11.73;;;6.20;;
4961;SDS011;2496;52.468;13.342;2023-02-28T06:47:40;16.20;;;6.50;;
4961;SDS011;2496;52.468;13.342;2023-02-28T06:50:10;11.90;;;6.57;;
4961;SDS011;2496;52.468;13.342;2023-02-28T06:52:38;12.17;;;6.20;;
4961;SDS011;2496;52.468;13.342;2023-02-28T06:55:07;13.30;;;6.33;;
4961;SDS011;2496;52.468;13.342;2023-02-28T06:57:35;12.27;;;6.30;;
4961;SDS011;2496;52.468;13.342;2023-02-28T07:00:03;9.80;;;6.27;;
4961;SDS011;2496;52.468;13.342;2023-02-28T07:02:32;11.00;;;6.57;;
4961;SDS011;2496;52.468;13.342;2023-02-28T07:04:59;13.50;;;6.80;;
4961;SDS011;2496;52.468;13.342;2023-02-28T07:07:26;9.73;;;5.73;;
4961;SDS011;2496;52.468;13.342;2023-02-28T07:09:55;11.40;;;5.47;;
4961;SDS011;2496;52.468;13.342;2023-02-28T07:12:24;12.07;;;6.30;;
4961;SDS011;2496;52.468;13.342;2023-02-28T07:14:51;9.90;;;6.10;;
4961;SDS011;2496;52.468;13.342;2023-02-28T07:17:19;13.50;;;6.30;;
4961;SDS011;2496;52.468;13.342;2023-02-28T07:19:46;11.00;;;6.43;;
4961;SDS011;2496;52.468;13.342;2023-02-28T07:22:13;14.87;;;6.77;;
4961;SDS011;2496;52.468;13.342;2023-02-28T07:24:40;16.17;;;7.27;;
4961;SDS011;2496;52.468;13.342;2023-02-28T07:27:07;12.73;;;6.53;;
4961;SDS011;2496;52.468;13.342;2023-02-28T07:29:35;13.60;;;6.90;;
4961;SDS011;2496;52.468;13.342;2023-02-28T07:32:03;9.80;;;6.33;;
4961;SDS011;2496;52.468;13.342;2023-02-28T07:34:31;14.10;;;6.10;;
4961;SDS011;2496;52.468;13.342;2023-02-28T07:36:58;12.67;;;6.40;;
4961;SDS011;2496;52.468;13.342;2023-02-28T07:39:28;12.13;;;5.93;;
4961;SDS011;2496;52.468;13.342;2023-02-28T07:41:55;13.37;;;6.30;;
4961;SDS011;2496;52.468;13.342;2023-02-28T07:44:22;12.67;;;5.63;;
4961;SDS011;2496;52.468;13.342;2023-02-28T07:46:51;9.67;;;5.73;;
4961;SDS011;2496;52.468;13.342;2023-02-28T07:49:18;11.63;;;5.57;;
4961;SDS011;2496;52.468;13.342;2023-02-28T07:51:45;13.47;;;6.37;;
4961;SDS011;2496;52.468;13.342;2023-02-28T07:54:12;9.60;;;5.73;;
4961;SDS011;2496;52.468;13.342;2023-02-28T07:56:39;8.80;;;4.90;;
4961;SDS011;2496;52.468;13.342;2023-02-28T07:59:06;8.33;;;4.83;;
4961;SDS011;2496;52.468;13.342;2023-02-28T08:01:33;8.23;;;4.23;;
4961;SDS011;2496;52.468;13.342;2023-02-28T08:04:01;10.73;;;4.73;;
4961;SDS011;2496;52.468;13.342;2023-02-28T08:06:28;9.57;;;4.40;;
4961;SDS011;2496;52.468;13.342;2023-02-28T08:08:56;8.53;;;4.60;;
4961;SDS011;2496;52.468;13.342;2023-02-28T08:11:23;6.80;;;4.27;;
4961;SDS011;2496;52.468;13.342;2023-02-28T08:13:50;6.00;;;3.87;;
4961;SDS011;2496;52.468;13.342;2023-02-28T08:16:17;5.30;;;3.43;;
4961;SDS011;2496;52.468;13.342;2023-02-28T08:18:47;6.40;;;3.93;;
4961;SDS011;2496;52.468;13.342;2023-02-28T08:21:16;6.47;;;4.30;;
4961;SDS011;2496;52.468;13.342;2023-02-28T08:23:43;10.00;;;5.03;;
4961;SDS011;2496;52.468;13.342;2023-02-28T08:26:12;9.87;;;3.60;;
4961;SDS011;2496;52.468;13.342;2023-02-28T08:28:39;6.43;;;3.40;;
4961;SDS011;2496;52.468;13.342;2023-02-28T08:31:07;4.70;;;3.53;;
4961;SDS011;2496;52.468;13.342;2023-02-28T08:33:35;6.93;;;3.23;;
4961;SDS011;2496;52.468;13.342;2023-02-28T08:36:04;5.67;;;3.17;;
4961;SDS011;2496;52.468;13.342;2023-02-28T08:38:33;4.10;;;2.80;;
4961;SDS011;2496;52.468;13.342;2023-02-28T08:41:01;4.10;;;3.00;;
4961;SDS011;2496;52.468;13.342;2023-02-28T08:43:31;4.57;;;3.13;;
4961;SDS011;2496;52.468;13.342;2023-02-28T08:45:58;4.83;;;3.33;;
4961;SDS011;2496;52.468;13.342;2023-02-28T08:48:27;2.70;;;2.20;;
4961;SDS011;2496;52.468;13.342;2023-02-28T08:50:56;7.30;;;2.50;;
4961;SDS011;2496;52.468;13.342;2023-02-28T08:53:24;5.80;;;2.90;;
4961;SDS011;2496;52.468;13.342;2023-02-28T08:55:59;4.33;;;2.40;;
4961;SDS011;2496;52.468;13.342;2023-02-28T08:58:27;7.37;;;2.90;;
4961;SDS011;2496;52.468;13.342;2023-02-28T09:00:54;2.47;;;2.10;;
4961;SDS011;2496;52.468;13.342;2023-02-28T09:03:22;2.63;;;1.90;;
4961;SDS011;2496;52.468;13.342;2023-02-28T09:05:53;4.50;;;2.20;;
4961;SDS011;2496;52.468;13.342;2023-02-28T09:08:21;4.90;;;2.40;;
4961;SDS011;2496;52.468;13.342;2023-02-28T09:10:49;5.80;;;3.10;;
4961;SDS011;2496;52.468;13.342;2023-02-28T09:13:17;3.13;;;2.50;;
4961;SDS011;2496;52.468;13.342;2023-02-28T09:15:45;4.60;;;2.43;;
4961;SDS011;2496;52.468;13.342;2023-02-28T09:18:12;6.07;;;3.17;;
4961;SDS011;2496;52.468;13.342;2023-02-28T09:20:39;3.90;;;2.70;;
4961;SDS011;2496;52.468;13.342;2023-02-28T09:23:08;4.83;;;3.63;;
4961;SDS011;2496;52.468;13.342;2023-02-28T09:25:36;4.83;;;2.77;;
4961;SDS011;2496;52.468;13.342;2023-02-28T09:28:04;4.00;;;2.70;;
4961;SDS011;2496;52.468;13.342;2023-02-28T09:30:32;4.60;;;2.70;;
4961;SDS011;2496;52.468;13.342;2023-02-28T09:33:00;4.80;;;2.97;;
4961;SDS011;2496;52.468;13.342;2023-02-28T09:35:27;5.47;;;2.60;;
4961;SDS011;2496;52.468;13.342;2023-02-28T09:37:55;3.70;;;2.23;;
4961;SDS011;2496;52.468;13.342;2023-02-28T09:40:24;4.43;;;2.70;;
4961;SDS011;2496;52.468;13.342;2023-02-28T09:42:52;7.10;;;2.57;;
4961;SDS011;2496;52.468;13.342;2023-02-28T09:45:22;3.50;;;2.10;;
4961;SDS011;2496;52.468;13.342;2023-02-28T09:47:55;5.70;;;2.60;;
4961;SDS011;2496;52.468;13.342;2023-02-28T09:50:29;5.97;;;2.83;;
4961;SDS011;2496;52.468;13.342;2023-02-28T09:52:58;3.97;;;2.40;;
4961;SDS011;2496;52.468;13.342;2023-02-28T09:55:28;3.10;;;2.10;;
4961;SDS011;2496;52.468;13.342;2023-02-28T09:57:58;9.40;;;2.70;;
4961;SDS011;2496;52.468;13.342;2023-02-28T10:00:28;3.77;;;2.80;;
4961;SDS011;2496;52.468;13.342;2023-02-28T10:05:58;9.67;;;3.13;;
4961;SDS011;2496;52.468;13.342;2023-02-28T10:08:32;9.60;;;2.37;;
4961;SDS011;2496;52.468;13.342;2023-02-28T10:11:06;2.97;;;2.07;;
4961;SDS011;2496;52.468;13.342;2023-02-28T10:13:36;3.90;;;1.97;;
4961;SDS011;2496;52.468;13.342;2023-02-28T10:16:10;3.90;;;2.20;;
4961;SDS011;2496;52.468;13.342;2023-02-28T10:18:41;3.90;;;2.40;;
4961;SDS011;2496;52.468;13.342;2023-02-28T10:21:17;3.90;;;2.47;;
4961;SDS011;2496;52.468;13.342;2023-02-28T10:23:49;2.53;;;2.00;;
4961;SDS011;2496;52.468;13.342;2023-02-28T10:26:22;4.37;;;2.00;;
4961;SDS011;2496;52.468;13.342;2023-02-28T10:28:52;4.53;;;1.90;;
4961;SDS011;2496;52.468;13.342;2023-02-28T10:31:20;3.67;;;1.90;;
4961;SDS011;2496;52.468;13.342;2023-02-28T10:33:48;5.97;;;2.17;;
4961;SDS011;2496;52.468;13.342;2023-02-28T10:36:18;8.97;;;2.93;;
4961;SDS011;2496;52.468;13.342;2023-02-28T10:38:47;3.17;;;2.43;;
4961;SDS011;2496;52.468;13.342;2023-02-28T10:41:15;3.40;;;2.03;;
4961;SDS011;2496;52.468;13.342;2023-02-28T10:43:53;5.40;;;1.87;;
4961;SDS011;2496;52.468;13.342;2023-02-28T10:46:40;2.93;;;1.73;;
4961;SDS011;2496;52.468;13.342;2023-02-28T10:49:12;4.13;;;2.20;;
4961;SDS011;2496;52.468;13.342;2023-02-28T10:51:42;3.03;;;2.10;;
4961;SDS011;2496;52.468;13.342;2023-02-28T10:54:16;4.17;;;2.67;;
4961;SDS011;2496;52.468;13.342;2023-02-28T10:56:54;6.40;;;2.93;;
4961;SDS011;2496;52.468;13.342;2023-02-28T10:59:33;5.60;;;2.30;;
4961;SDS011;2496;52.468;13.342;2023-02-28T11:02:01;5.73;;;2.70;;
4961;SDS011;2496;52.468;13.342;2023-02-28T11:04:35;4.90;;;2.93;;
4961;SDS011;2496;52.468;13.342;2023-02-28T11:07:10;6.83;;;3.27;;
4961;SDS011;2496;52.468;13.342;2023-02-28T11:09:45;6.70;;;2.17;;
4961;SDS011;2496;52.468;13.342;2023-02-28T11:12:19;7.80;;;2.47;;
4961;SDS011;2496;52.468;13.342;2023-02-28T11:14:49;5.13;;;2.57;;
4961;SDS011;2496;52.468;13.342;2023-02-28T11:17:19;3.50;;;2.33;;
4961;SDS011;2496;52.468;13.342;2023-02-28T11:19:49;4.73;;;2.23;;
4961;SDS011;2496;52.468;13.342;2023-02-28T11:22:20;3.83;;;2.03;;
4961;SDS011;2496;52.468;13.342;2023-02-28T11:24:50;7.57;;;2.13;;
4961;SDS011;2496;52.468;13.342;2023-02-28T11:27:26;6.07;;;2.80;;
4961;SDS011;2496;52.468;13.342;2023-02-28T11:30:23;12.43;;;3.13;;
4961;SDS011;2496;52.468;13.342;2023-02-28T11:32:52;7.50;;;3.07;;
4961;SDS011;2496;52.468;13.342;2023-02-28T11:35:21;8.63;;;2.93;;
4961;SDS011;2496;52.468;13.342;2023-02-28T11:37:53;5.67;;;2.80;;
4961;SDS011;2496;52.468;13.342;2023-02-28T11:40:22;6.47;;;2.90;;
4961;SDS011;2496;52.468;13.342;2023-02-28T11:42:57;4.00;;;2.57;;
4961;SDS011;2496;52.468;13.342;2023-02-28T11:45:42;4.40;;;2.97;;
4961;SDS011;2496;52.468;13.342;2023-02-28T11:48:17;4.20;;;2.70;;
4961;SDS011;2496;52.468;13.342;2023-02-28T11:50:54;5.90;;;3.43;;
4961;SDS011;2496;52.468;13.342;2023-02-28T11:53:35;5.50;;;3.57;;
4961;SDS011;2496;52.468;13.342;2023-02-28T11:56:23;6.43;;;2.43;;
4961;SDS011;2496;52.468;13.342;2023-02-28T11:59:00;4.57;;;2.30;;
4961;SDS011;2496;52.468;13.342;2023-02-28T12:01:43;4.40;;;2.77;;
4961;SDS011;2496;52.468;13.342;2023-02-28T12:04:28;4.93;;;3.33;;
4961;SDS011;2496;52.468;13.342;2023-02-28T12:07:08;21.27;;;3.93;;
4961;SDS011;2496;52.468;13.342;2023-02-28T12:09:43;5.17;;;3.93;;
4961;SDS011;2496;52.468;13.342;2023-02-28T12:12:22;9.53;;;3.07;;
4961;SDS011;2496;52.468;13.342;2023-02-28T12:17:50;5.90;;;3.27;;
4961;SDS011;2496;52.468;13.342;2023-02-28T12:20:28;5.70;;;3.10;;
4961;SDS011;2496;52.468;13.342;2023-02-28T12:23:10;4.87;;;3.23;;
4961;SDS011;2496;52.468;13.342;2023-02-28T12:26:04;6.43;;;2.97;;
4961;SDS011;2496;52.468;13.342;2023-02-28T12:28:38;6.20;;;3.10;;
4961;SDS011;2496;52.468;13.342;2023-02-28T12:31:09;5.83;;;3.20;;
4961;SDS011;2496;52.468;13.342;2023-02-28T12:33:42;7.13;;;3.33;;
4961;SDS011;2496;52.468;13.342;2023-02-28T12:36:14;7.83;;;3.50;;
4961;SDS011;2496;52.468;13.342;2023-02-28T12:38:47;13.20;;;4.17;;
4961;SDS011;2496;52.468;13.342;2023-02-28T12:41:19;5.97;;;3.67;;
4961;SDS011;2496;52.468;13.342;2023-02-28T12:43:55;7.30;;;4.80;;
4961;SDS011;2496;52.468;13.342;2023-02-28T12:46:28;6.07;;;4.07;;
4961;SDS011;2496;52.468;13.342;2023-02-28T12:48:59;5.70;;;3.10;;
4961;SDS011;2496;52.468;13.342;2023-02-28T12:51:30;11.33;;;4.70;;
4961;SDS011;2496;52.468;13.342;2023-02-28T12:54:02;10.00;;;5.10;;
4961;SDS011;2496;52.468;13.342;2023-02-28T12:56:38;6.67;;;3.40;;
4961;SDS011;2496;52.468;13.342;2023-02-28T12:59:13;6.50;;;3.13;;
4961;SDS011;2496;52.468;13.342;2023-02-28T13:01:52;7.00;;;3.40;;
4961;SDS011;2496;52.468;13.342;2023-02-28T13:07:57;7.97;;;4.37;;
4961;SDS011;2496;52.468;13.342;2023-02-28T13:10:52;4.93;;;3.80;;
4961;SDS011;2496;52.468;13.342;2023-02-28T13:13:22;7.87;;;3.40;;
4961;SDS011;2496;52.468;13.342;2023-02-28T13:16:02;8.93;;;4.40;;
4961;SDS011;2496;52.468;13.342;2023-02-28T13:18:35;5.40;;;2.90;;
4961;SDS011;2496;52.468;13.342;2023-02-28T13:21:04;7.23;;;3.40;;
4961;SDS011;2496;52.468;13.342;2023-02-28T13:23:41;5.80;;;3.27;;
4961;SDS011;2496;52.468;13.342;2023-02-28T13:29:29;5.13;;;2.97;;
4961;SDS011;2496;52.468;13.342;2023-02-28T13:38:16;4.70;;;3.10;;
4961;SDS011;2496;52.468;13.342;2023-02-28T13:40:48;13.57;;;2.97;;
4961;SDS011;2496;52.468;13.342;2023-02-28T13:43:16;5.53;;;2.70;;
4961;SDS011;2496;52.468;13.342;2023-02-28T13:46:06;4.30;;;2.57;;
4961;SDS011;2496;52.468;13.342;2023-02-28T13:48:38;5.00;;;3.00;;
4961;SDS011;2496;52.468;13.342;2023-02-28T13:54:07;5.10;;;2.93;;
4961;SDS011;2496;52.468;13.342;2023-02-28T13:56:49;7.77;;;3.30;;
4961;SDS011;2496;52.468;13.342;2023-02-28T13:59:29;7.67;;;3.63;;
4961;SDS011;2496;52.468;13.342;2023-02-28T14:02:17;3.93;;;3.20;;
4961;SDS011;2496;52.468;13.342;2023-02-28T14:05:01;3.27;;;2.63;;
4961;SDS011;2496;52.468;13.342;2023-02-28T14:07:32;10.43;;;3.00;;
4961;SDS011;2496;52.468;13.342;2023-02-28T14:10:05;5.50;;;2.90;;
4961;SDS011;2496;52.468;13.342;2023-02-28T14:12:51;4.03;;;2.70;;
4961;SDS011;2496;52.468;13.342;2023-02-28T14:15:46;4.63;;;2.80;;
4961;SDS011;2496;52.468;13.342;2023-02-28T14:24:02;14.63;;;3.33;;
4961;SDS011;2496;52.468;13.342;2023-02-28T14:26:56;4.30;;;3.17;;
4961;SDS011;2496;52.468;13.342;2023-02-28T14:32:39;9.93;;;3.30;;
4961;SDS011;2496;52.468;13.342;2023-02-28T14:35:18;5.20;;;3.40;;
4961;SDS011;2496;52.468;13.342;2023-02-28T14:38:07;6.70;;;4.87;;
4961;SDS011;2496;52.468;13.342;2023-02-28T14:40:42;7.43;;;3.60;;
4961;SDS011;2496;52.468;13.342;2023-02-28T14:43:19;6.53;;;3.10;;
4961;SDS011;2496;52.468;13.342;2023-02-28T14:45:49;6.00;;;3.17;;
4961;SDS011;2496;52.468;13.342;2023-02-28T14:48:17;6.13;;;3.17;;
4961;SDS011;2496;52.468;13.342;2023-02-28T14:50:51;4.50;;;2.80;;
4961;SDS011;2496;52.468;13.342;2023-02-28T14:53:19;5.90;;;3.07;;
4961;SDS011;2496;52.468;13.342;2023-02-28T14:55:49;5.53;;;3.27;;
4961;SDS011;2496;52.468;13.342;2023-02-28T14:58:22;9.33;;;3.13;;
4961;SDS011;2496;52.468;13.342;2023-02-28T15:00:53;4.53;;;3.13;;
4961;SDS011;2496;52.468;13.342;2023-02-28T15:03:23;4.87;;;3.10;;
4961;SDS011;2496;52.468;13.342;2023-02-28T15:05:57;3.80;;;3.10;;
4961;SDS011;2496;52.468;13.342;2023-02-28T15:08:26;10.97;;;3.33;;
4961;SDS011;2496;52.468;13.342;2023-02-28T15:10:55;4.43;;;3.13;;
4961;SDS011;2496;52.468;13.342;2023-02-28T15:13:24;5.90;;;3.77;;
4961;SDS011;2496;52.468;13.342;2023-02-28T15:16:00;4.63;;;3.27;;
4961;SDS011;2496;52.468;13.342;2023-02-28T15:18:31;3.43;;;2.90;;
4961;SDS011;2496;52.468;13.342;2023-02-28T15:21:06;9.90;;;3.10;;
4961;SDS011;2496;52.468;13.342;2023-02-28T15:23:37;11.77;;;4.27;;
4961;SDS011;2496;52.468;13.342;2023-02-28T15:26:06;5.10;;;3.23;;
4961;SDS011;2496;52.468;13.342;2023-02-28T15:28:38;8.30;;;4.20;;
4961;SDS011;2496;52.468;13.342;2023-02-28T15:31:16;6.73;;;3.70;;
4961;SDS011;2496;52.468;13.342;2023-02-28T15:33:57;6.23;;;3.70;;
4961;SDS011;2496;52.468;13.342;2023-02-28T15:36:32;5.87;;;3.33;;
4961;SDS011;2496;52.468;13.342;2023-02-28T15:39:02;5.33;;;3.57;;
4961;SDS011;2496;52.468;13.342;2023-02-28T15:41:44;7.30;;;3.80;;
4961;SDS011;2496;52.468;13.342;2023-02-28T15:44:15;10.40;;;3.77;;
4961;SDS011;2496;52.468;13.342;2023-02-28T15:46:54;8.10;;;3.80;;
4961;SDS011;2496;52.468;13.342;2023-02-28T15:49:27;11.33;;;5.20;;
4961;SDS011;2496;52.468;13.342;2023-02-28T15:51:59;7.77;;;4.63;;
4961;SDS011;2496;52.468;13.342;2023-02-28T15:54:27;5.57;;;3.93;;
4961;SDS011;2496;52.468;13.342;2023-02-28T15:56:57;7.10;;;3.53;;